La Palma > ESTACION METEOROLÓGICA Puerto de Tazacorte

DATOS ACTUALES Online

Ultima actulizacion 14 minutos

22.4 ºC

Temperatura

91

Humedad (%)

1014.6

Presión (mb)

9.2

Precipitación (mm)

1.62 W

Viento (Km/h)

DATOS DIARIOS

Temperatura últimas 24 horas (ºC)

Humedad últimas 24 horas (%)

Presión atmosférica últimas 24 horas (mb)

Precipitaciones últimas 23 horas (mm)

Viento últimas 24 horas (Km/h)

Hora Temperatura (°C) ºC Precipitación (mm) mm Presión (mb) mb Humedad (%) % Viento (Km/h) km/h
24 - 23:00 23.8 0 1018 78 6.3 NE
25 - 00:00 24.1 0 1018 78 3.06 E
25 - 01:00 23.6 0 1017 76 1.62 NE
25 - 02:00 24.2 0 1017 75 1.62 NE
25 - 03:00 24.3 0 1017 75 0 NE
25 - 04:00 23.8 0 1016 72 3.06 E
25 - 05:00 23.9 0 1016 70 0 NE
25 - 06:00 24.1 0 1016 70 0 NE
25 - 07:00 23.8 0 1016 71 3.06 E
25 - 08:00 23.8 0 1017 74 3.06 E
25 - 09:00 24.4 0 1018 75 0 E
25 - 10:00 25 0 1018 76 3.06 SW
25 - 11:00 25.1 0 1018 74 0 SW
25 - 12:00 25.2 0 1018 77 3.06 SW
25 - 13:00 23 2.6 1018 79 3.06 SW
25 - 14:00 22.5 5.2 1017 83 1.62 SW
25 - 15:00 22.4 7.4 1016 85 3.06 SW
25 - 16:00 22.1 7.8 1015 87 0 SW
25 - 17:00 21.9 7.8 1016 88 3.06 SW
25 - 18:00 22.3 8.4 1016 89 6.3 S
25 - 19:00 22.1 8.8 1015 89 1.62 SW
25 - 20:00 22.2 9 1015 90 3.06 W
25 - 21:00 22.3 9 1015 90 3.06 NW
25 - 22:00 22.4 9.2 1015 90 6.3 SW
25 - 23:00 22.4 9.2 1015 91 1.62 W
Apalmet utiliza cookies propias y de terceros para mejorar la usabilidad y la experiencia web. Política de cookies.